createdAt,value
2019-03-19T00:00:23.846Z,72.84
2019-03-19T00:02:50.450Z,72.86
2019-03-19T00:05:17.139Z,72.82
2019-03-19T00:07:43.736Z,72.96
2019-03-19T00:10:13.228Z,72.99
2019-03-19T00:12:39.831Z,72.95
2019-03-19T00:15:06.492Z,72.95
2019-03-19T00:17:33.200Z,72.88
2019-03-19T00:19:59.788Z,72.85
2019-03-19T00:22:26.488Z,72.75
2019-03-19T00:24:53.190Z,72.70
2019-03-19T00:27:19.803Z,72.70
2019-03-19T00:29:46.408Z,72.64
2019-03-19T00:32:12.995Z,72.57
2019-03-19T00:34:39.618Z,72.51
2019-03-19T00:37:06.233Z,72.50
2019-03-19T00:39:32.961Z,72.51
2019-03-19T00:41:59.656Z,72.64
2019-03-19T00:44:26.326Z,72.60
2019-03-19T00:46:52.942Z,72.57
2019-03-19T00:49:19.533Z,72.53
2019-03-19T00:51:46.158Z,72.46
2019-03-19T00:54:12.759Z,72.27
2019-03-19T00:56:39.482Z,72.33
2019-03-19T00:59:06.173Z,72.32
2019-03-19T01:01:32.803Z,72.31
2019-03-19T01:03:59.389Z,72.32
2019-03-19T01:06:26.083Z,72.39
2019-03-19T01:08:52.695Z,72.39
2019-03-19T01:11:19.311Z,72.43
2019-03-19T01:13:45.916Z,72.40
2019-03-19T01:16:12.589Z,72.41
2019-03-19T01:18:39.202Z,72.51
2019-03-19T01:21:05.777Z,72.52
2019-03-19T01:23:32.390Z,72.48
2019-03-19T01:25:59.077Z,72.47
2019-03-19T01:28:25.717Z,72.36
2019-03-19T01:30:52.306Z,72.33
2019-03-19T01:33:18.946Z,72.36
2019-03-19T01:35:45.652Z,72.54
2019-03-19T01:38:12.357Z,72.45
2019-03-19T01:40:39.053Z,72.42
2019-03-19T01:43:05.686Z,72.35
2019-03-19T01:45:32.299Z,72.52
2019-03-19T01:47:58.998Z,72.60
2019-03-19T01:50:25.626Z,72.71
2019-03-19T01:52:52.214Z,72.79
2019-03-19T01:55:18.846Z,72.78
2019-03-19T01:57:45.439Z,72.78
2019-03-19T02:00:12.393Z,72.83
2019-03-19T02:02:38.984Z,72.83
2019-03-19T02:05:05.620Z,72.83
2019-03-19T02:07:32.210Z,72.77
2019-03-19T02:09:58.833Z,72.92
2019-03-19T02:12:25.540Z,72.97
2019-03-19T02:14:52.144Z,73.06
2019-03-19T02:17:18.744Z,73.07
2019-03-19T02:19:45.337Z,73.03
2019-03-19T02:22:11.928Z,73.07
2019-03-19T02:24:38.526Z,73.07
2019-03-19T02:27:05.112Z,73.14
2019-03-19T02:29:31.714Z,73.13
2019-03-19T02:31:58.314Z,73.12
2019-03-19T02:34:24.954Z,73.10
2019-03-19T02:36:51.641Z,73.07
2019-03-19T02:39:18.245Z,73.09
2019-03-19T02:41:44.870Z,73.01
2019-03-19T02:44:11.459Z,73.13
2019-03-19T02:46:38.058Z,73.29
2019-03-19T02:49:04.659Z,73.47
2019-03-19T02:51:31.288Z,73.69
2019-03-19T02:53:57.922Z,74.08
2019-03-19T02:56:32.443Z,74.44
2019-03-19T02:58:53.131Z,74.59
2019-03-19T03:01:19.708Z,74.72
2019-03-19T03:03:46.322Z,74.84
2019-03-19T03:06:12.940Z,74.70
2019-03-19T03:08:39.642Z,74.76
2019-03-19T03:11:06.243Z,74.80
2019-03-19T03:13:32.857Z,74.83
2019-03-19T03:15:59.469Z,74.90
2019-03-19T03:18:26.231Z,74.88
2019-03-19T03:20:52.938Z,74.90
2019-03-19T03:23:19.548Z,74.80
2019-03-19T03:25:46.242Z,74.73
2019-03-19T03:28:12.930Z,74.55
2019-03-19T03:30:39.634Z,74.40
2019-03-19T03:33:06.357Z,74.48
2019-03-19T03:35:33.055Z,74.38
2019-03-19T03:37:59.885Z,74.28
2019-03-19T03:40:26.500Z,74.29
2019-03-19T03:42:53.121Z,73.93
2019-03-19T03:45:19.821Z,73.92
2019-03-19T03:47:46.524Z,74.06
2019-03-19T03:50:13.352Z,74.16
2019-03-19T03:52:40.057Z,74.12
2019-03-19T03:55:11.860Z,74.83
2019-03-19T03:57:38.719Z,74.79
2019-03-19T04:00:06.878Z,74.76
2019-03-19T04:02:33.577Z,74.64
2019-03-19T04:05:00.406Z,74.49
2019-03-19T04:07:27.077Z,74.55
2019-03-19T04:09:53.793Z,74.56
2019-03-19T04:12:20.479Z,74.64
2019-03-19T04:14:47.148Z,74.55
2019-03-19T04:17:13.872Z,74.42
2019-03-19T04:19:40.457Z,74.22
2019-03-19T04:22:07.053Z,74.33
2019-03-19T04:24:33.750Z,74.29
2019-03-19T04:27:00.345Z,74.31
2019-03-19T04:29:26.966Z,74.43
2019-03-19T04:31:53.556Z,74.49
2019-03-19T04:34:20.179Z,74.50
2019-03-19T04:36:46.830Z,74.37
2019-03-19T04:39:13.501Z,74.40
2019-03-19T04:41:40.118Z,74.52
2019-03-19T04:44:06.829Z,74.91
2019-03-19T04:46:33.550Z,75.10
2019-03-19T04:49:00.136Z,75.22
2019-03-19T04:51:26.720Z,75.22
2019-03-19T04:53:53.328Z,75.05
2019-03-19T04:56:19.950Z,74.88
2019-03-19T04:58:46.554Z,74.91
2019-03-19T05:01:13.258Z,74.88
2019-03-19T05:03:39.844Z,75.16
2019-03-19T05:06:06.546Z,75.49
2019-03-19T05:08:33.149Z,75.50
2019-03-19T05:10:59.879Z,75.49
2019-03-19T05:13:26.487Z,75.42
2019-03-19T05:15:53.069Z,75.46
2019-03-19T05:18:19.662Z,75.55
2019-03-19T05:20:46.259Z,75.56
2019-03-19T05:23:12.889Z,75.54
2019-03-19T05:25:39.605Z,75.53
2019-03-19T05:28:06.293Z,75.42
2019-03-19T05:30:32.893Z,75.64
2019-03-19T05:32:59.507Z,75.81
2019-03-19T05:35:26.115Z,75.76
2019-03-19T05:37:52.838Z,75.84
2019-03-19T05:40:19.536Z,75.99
2019-03-19T05:42:46.155Z,76.06
2019-03-19T05:45:12.783Z,76.02
2019-03-19T05:47:40.695Z,76.02
2019-03-19T05:50:08.179Z,75.99
2019-03-19T05:52:34.873Z,75.89
2019-03-19T05:55:01.510Z,75.83
2019-03-19T05:57:28.294Z,75.82
2019-03-19T05:59:55.019Z,75.72
2019-03-19T06:02:21.715Z,79.74
2019-03-19T06:04:48.339Z,81.70
2019-03-19T06:07:14.944Z,81.90
2019-03-19T06:09:41.641Z,79.89
2019-03-19T06:12:08.242Z,77.42
2019-03-19T06:14:34.857Z,72.77
2019-03-19T06:17:01.462Z,71.60
2019-03-19T06:19:28.055Z,70.58
2019-03-19T06:21:56.696Z,67.23
2019-03-19T06:24:23.214Z,67.13
2019-03-19T06:26:49.866Z,67.74
2019-03-19T06:29:16.536Z,67.71
2019-03-19T06:31:43.177Z,63.45
2019-03-19T06:34:09.802Z,64.42
2019-03-19T06:36:36.596Z,63.33
2019-03-19T06:39:05.122Z,63.26
2019-03-19T06:41:31.847Z,63.62
2019-03-19T06:43:58.492Z,63.70
2019-03-19T06:46:25.187Z,65.69
2019-03-19T06:48:58.564Z,65.15
2019-03-19T06:51:25.365Z,65.41
2019-03-19T06:53:52.028Z,66.58
2019-03-19T06:56:18.646Z,67.06
2019-03-19T06:58:45.350Z,68.14
2019-03-19T07:01:11.944Z,68.78
2019-03-19T07:03:38.545Z,69.37
2019-03-19T07:06:05.168Z,69.43
2019-03-19T07:08:31.880Z,69.26
2019-03-19T07:10:58.499Z,68.73
2019-03-19T07:13:25.101Z,69.64
2019-03-19T07:15:51.707Z,69.10
2019-03-19T07:18:18.322Z,68.79
2019-03-19T07:20:44.984Z,69.75
2019-03-19T07:23:11.630Z,69.22
2019-03-19T07:25:38.242Z,69.40
2019-03-19T07:28:04.953Z,70.52
2019-03-19T07:30:31.663Z,69.85
2019-03-19T07:32:58.279Z,68.77
2019-03-19T07:35:24.891Z,70.03
2019-03-19T07:37:51.505Z,70.32
2019-03-19T07:40:18.483Z,70.67
2019-03-19T07:42:45.139Z,69.66
2019-03-19T07:45:12.379Z,70.55
2019-03-19T07:47:39.092Z,69.65
2019-03-19T07:50:06.464Z,68.36
2019-03-19T07:52:33.172Z,67.46
2019-03-19T07:54:59.849Z,66.60
2019-03-19T07:57:26.473Z,66.28
2019-03-19T07:59:53.175Z,65.89
2019-03-19T08:02:19.815Z,66.03
2019-03-19T08:04:46.425Z,66.92
2019-03-19T08:07:13.030Z,66.17
2019-03-19T08:09:39.781Z,63.37
2019-03-19T08:12:06.509Z,63.71
2019-03-19T08:14:33.103Z,63.10
2019-03-19T08:16:59.705Z,63.04
2019-03-19T08:19:26.352Z,61.87
2019-03-19T08:21:52.957Z,62.13
2019-03-19T08:24:19.557Z,62.05
2019-03-19T08:26:46.156Z,61.21
2019-03-19T08:29:12.789Z,61.12
2019-03-19T08:31:39.419Z,60.68
2019-03-19T08:34:06.143Z,60.73
2019-03-19T08:36:32.732Z,59.47
2019-03-19T08:38:59.341Z,59.39
2019-03-19T08:41:25.955Z,58.80
2019-03-19T08:43:52.765Z,59.90
2019-03-19T08:46:19.442Z,59.71
2019-03-19T08:48:46.068Z,59.44
2019-03-19T08:51:12.665Z,59.57
2019-03-19T08:53:39.244Z,59.90
2019-03-19T08:56:06.014Z,59.46
2019-03-19T08:58:32.700Z,59.88
2019-03-19T09:00:59.329Z,60.13
2019-03-19T09:03:25.946Z,60.45
2019-03-19T09:05:52.542Z,60.53
2019-03-19T09:08:19.209Z,59.95
2019-03-19T09:10:45.814Z,60.10
2019-03-19T09:13:12.408Z,59.46
2019-03-19T09:15:39.026Z,58.86
2019-03-19T09:18:05.712Z,58.13
2019-03-19T09:20:32.440Z,58.33
2019-03-19T09:22:59.114Z,57.29
2019-03-19T09:25:25.725Z,57.55
2019-03-19T09:27:52.415Z,57.71
2019-03-19T09:30:19.172Z,57.04
2019-03-19T09:32:45.821Z,57.19
2019-03-19T09:35:12.420Z,57.89
2019-03-19T09:37:44.405Z,57.80
2019-03-19T09:40:09.076Z,56.96
2019-03-19T09:42:36.036Z,55.28
2019-03-19T09:45:02.642Z,56.65
2019-03-19T09:47:29.230Z,56.87
2019-03-19T09:49:55.839Z,57.76
2019-03-19T09:52:22.540Z,57.97
2019-03-19T09:54:49.168Z,59.11
2019-03-19T09:57:15.904Z,58.25
2019-03-19T09:59:44.493Z,58.47
2019-03-19T10:02:11.092Z,58.67
2019-03-19T10:04:37.795Z,58.00
2019-03-19T10:07:06.317Z,55.83
2019-03-19T10:09:32.929Z,55.67
2019-03-19T10:11:59.530Z,57.77
2019-03-19T10:14:26.219Z,58.25
2019-03-19T10:16:55.587Z,58.90
2019-03-19T10:19:22.175Z,59.05
2019-03-19T10:21:48.797Z,59.69
2019-03-19T10:24:15.391Z,59.60
2019-03-19T10:26:42.026Z,59.68
2019-03-19T10:29:08.705Z,59.80
2019-03-19T10:31:35.307Z,58.42
2019-03-19T10:34:01.905Z,58.24
2019-03-19T10:36:28.529Z,58.49
2019-03-19T10:38:55.155Z,55.00
2019-03-19T10:41:21.875Z,55.65
2019-03-19T10:43:48.473Z,55.56
2019-03-19T10:46:15.073Z,53.79
2019-03-19T10:48:41.674Z,53.68
2019-03-19T10:51:08.277Z,51.87
2019-03-19T10:53:34.879Z,50.56
2019-03-19T10:56:01.476Z,48.62
2019-03-19T10:58:28.085Z,45.77
2019-03-19T11:00:54.707Z,46.29
2019-03-19T11:03:21.409Z,43.00
2019-03-19T11:05:48.008Z,42.62
2019-03-19T11:08:14.618Z,44.63
2019-03-19T11:10:41.222Z,46.49
2019-03-19T11:13:07.864Z,51.38
2019-03-19T11:15:34.551Z,48.85
2019-03-19T11:18:01.155Z,47.50
2019-03-19T11:20:27.773Z,46.84
2019-03-19T11:22:54.452Z,47.03
2019-03-19T11:25:21.064Z,47.73
2019-03-19T11:27:47.766Z,49.24
2019-03-19T11:30:15.451Z,47.69
2019-03-19T11:32:42.134Z,49.52
2019-03-19T11:35:08.744Z,50.71
2019-03-19T11:37:35.347Z,47.21
2019-03-19T11:40:02.054Z,47.09
2019-03-19T11:42:28.695Z,49.20
2019-03-19T11:44:55.284Z,46.45
2019-03-19T11:47:21.924Z,47.64
2019-03-19T11:49:48.516Z,47.91
2019-03-19T11:52:15.119Z,46.58
2019-03-19T11:54:41.710Z,46.66
2019-03-19T11:57:08.417Z,47.38
2019-03-19T11:59:35.019Z,48.14
2019-03-19T12:02:01.623Z,48.25
2019-03-19T12:04:28.223Z,48.62
2019-03-19T12:06:54.878Z,49.91
2019-03-19T12:09:21.540Z,50.25
2019-03-19T12:11:48.178Z,50.61
2019-03-19T12:14:14.882Z,50.51
2019-03-19T12:16:41.589Z,48.51
2019-03-19T12:19:08.197Z,48.72
2019-03-19T12:21:34.887Z,46.83
2019-03-19T12:24:01.479Z,46.17
2019-03-19T12:26:28.073Z,41.37
2019-03-19T12:28:54.671Z,41.16
2019-03-19T12:31:21.280Z,40.82
2019-03-19T12:33:47.961Z,40.55
2019-03-19T12:36:14.551Z,41.22
2019-03-19T12:38:41.157Z,41.05
2019-03-19T12:41:07.773Z,40.95
2019-03-19T12:43:34.513Z,41.69
2019-03-19T12:46:01.142Z,42.26
2019-03-19T12:48:27.848Z,42.72
2019-03-19T12:50:54.562Z,42.74
2019-03-19T12:53:21.259Z,42.71
2019-03-19T12:55:47.927Z,43.50
2019-03-19T12:58:27.765Z,43.76
2019-03-19T13:00:53.425Z,42.00
2019-03-19T13:03:20.145Z,43.26
2019-03-19T13:05:46.753Z,43.13
2019-03-19T13:08:13.374Z,42.00
2019-03-19T13:10:40.107Z,39.69
2019-03-19T13:13:06.829Z,40.18
2019-03-19T13:15:33.569Z,39.51
2019-03-19T13:18:00.191Z,38.71
2019-03-19T13:20:26.934Z,39.38
2019-03-19T13:22:53.565Z,38.67
2019-03-19T13:25:20.318Z,37.47
2019-03-19T13:27:46.933Z,40.45
2019-03-19T13:30:14.745Z,39.32
2019-03-19T13:32:41.374Z,41.33
2019-03-19T13:35:08.068Z,39.51
2019-03-19T13:37:34.680Z,40.42
2019-03-19T13:40:01.306Z,39.88
2019-03-19T13:42:27.914Z,42.67
2019-03-19T13:44:54.626Z,39.06
2019-03-19T13:47:21.254Z,38.63
2019-03-19T13:49:47.906Z,39.30
2019-03-19T13:52:14.622Z,38.25
2019-03-19T13:54:41.335Z,37.67
2019-03-19T13:57:07.992Z,37.76
2019-03-19T13:59:36.066Z,39.17
2019-03-19T14:02:09.258Z,40.21
2019-03-19T14:04:35.889Z,40.71
2019-03-19T14:09:41.376Z,42.07
2019-03-19T14:12:08.030Z,41.06
2019-03-19T14:14:34.733Z,41.70
2019-03-19T14:17:01.473Z,42.09
2019-03-19T14:19:28.196Z,43.07
2019-03-19T14:21:54.876Z,42.89
2019-03-19T14:24:21.533Z,43.03
2019-03-19T14:26:50.396Z,44.39
2019-03-19T14:29:16.770Z,44.24
2019-03-19T14:31:43.487Z,44.30
2019-03-19T14:34:10.193Z,44.12
2019-03-19T14:36:36.927Z,43.89
2019-03-19T14:39:06.033Z,44.66
2019-03-19T14:41:32.664Z,45.43
2019-03-19T14:46:58.696Z,45.61
2019-03-19T14:49:25.431Z,45.67
2019-03-19T14:51:52.175Z,44.24
2019-03-19T14:54:18.895Z,44.66
2019-03-19T14:56:45.530Z,43.80
2019-03-19T14:59:12.150Z,43.13
2019-03-19T15:01:38.927Z,42.83
2019-03-19T15:04:05.624Z,42.77
2019-03-19T15:06:32.376Z,42.33
2019-03-19T15:08:59.109Z,42.69
2019-03-19T15:11:25.819Z,42.60
2019-03-19T15:13:52.481Z,42.64
2019-03-19T15:16:19.191Z,43.46
2019-03-19T15:18:45.881Z,43.88
2019-03-19T15:21:12.471Z,44.48
2019-03-19T15:23:39.085Z,48.08
2019-03-19T15:26:05.701Z,50.37
2019-03-19T15:28:32.312Z,51.20
2019-03-19T15:30:58.906Z,51.98
2019-03-19T15:33:25.517Z,52.72
2019-03-19T15:35:52.123Z,53.04
2019-03-19T15:38:18.845Z,53.30
2019-03-19T15:40:45.745Z,53.51
2019-03-19T15:43:12.475Z,53.97
2019-03-19T15:45:39.076Z,53.74
2019-03-19T15:48:05.678Z,54.03
2019-03-19T15:50:32.280Z,54.20
2019-03-19T15:52:58.901Z,55.00
2019-03-19T15:55:25.497Z,55.11
2019-03-19T15:57:52.076Z,54.97
2019-03-19T16:00:18.697Z,55.15
2019-03-19T16:02:45.325Z,55.37
2019-03-19T16:05:11.922Z,55.90
2019-03-19T16:07:38.542Z,56.35
2019-03-19T16:10:05.202Z,56.53
2019-03-19T16:12:31.784Z,57.14
2019-03-19T16:14:58.391Z,57.52
2019-03-19T16:17:24.996Z,57.92
2019-03-19T16:19:51.613Z,58.41
2019-03-19T16:22:18.219Z,58.52
2019-03-19T16:24:44.952Z,59.00
2019-03-19T16:27:11.654Z,59.05
2019-03-19T16:29:38.542Z,59.41
2019-03-19T16:32:05.263Z,59.45
2019-03-19T16:34:31.854Z,59.19
2019-03-19T16:36:58.458Z,59.17
2019-03-19T16:39:25.074Z,58.31
2019-03-19T16:41:51.698Z,58.74
2019-03-19T16:44:18.386Z,58.80
2019-03-19T16:46:45.108Z,59.06
2019-03-19T16:49:11.708Z,59.03
2019-03-19T16:51:38.346Z,59.09
2019-03-19T16:54:04.943Z,59.26
2019-03-19T16:56:31.622Z,59.57
2019-03-19T16:58:58.260Z,59.70
2019-03-19T17:01:24.884Z,60.05
2019-03-19T17:03:51.599Z,60.22
2019-03-19T17:06:18.278Z,60.52
2019-03-19T17:08:44.880Z,60.70
2019-03-19T17:11:11.518Z,60.98
2019-03-19T17:13:38.241Z,61.24
2019-03-19T17:16:04.844Z,61.52
2019-03-19T17:18:31.445Z,61.77
2019-03-19T17:20:58.042Z,61.79
2019-03-19T17:23:24.667Z,61.89
2019-03-19T17:25:51.261Z,62.09
2019-03-19T17:28:22.462Z,62.33
2019-03-19T17:30:46.403Z,62.42
2019-03-19T17:33:13.094Z,62.87
2019-03-19T17:35:39.701Z,63.01
2019-03-19T17:38:06.309Z,63.33
2019-03-19T17:40:40.955Z,63.46
2019-03-19T17:43:07.821Z,63.78
2019-03-19T17:45:34.502Z,69.33
2019-03-19T17:48:01.227Z,69.05
2019-03-19T17:50:27.956Z,66.16
2019-03-19T17:52:54.666Z,64.10
2019-03-19T17:55:21.451Z,61.67
2019-03-19T17:57:48.204Z,61.47
2019-03-19T18:00:18.010Z,61.51
2019-03-19T18:02:44.711Z,62.05
2019-03-19T18:05:11.343Z,62.57
2019-03-19T18:07:38.034Z,62.77
2019-03-19T18:10:04.880Z,62.96
2019-03-19T18:12:31.605Z,63.33
2019-03-19T18:14:58.302Z,63.76
2019-03-19T18:17:25.027Z,63.88
2019-03-19T18:19:51.649Z,63.94
2019-03-19T18:22:18.356Z,64.11
2019-03-19T18:24:44.950Z,64.47
2019-03-19T18:27:11.680Z,64.82
2019-03-19T18:29:38.394Z,64.79
2019-03-19T18:32:05.280Z,65.00
2019-03-19T18:34:31.921Z,65.07
2019-03-19T18:36:58.622Z,65.36
2019-03-19T18:39:25.350Z,65.36
2019-03-19T18:41:52.024Z,65.48
2019-03-19T18:44:18.644Z,65.77
2019-03-19T18:46:45.354Z,66.53
2019-03-19T18:49:12.080Z,66.98
2019-03-19T18:51:38.867Z,66.11
2019-03-19T18:54:05.538Z,65.77
2019-03-19T18:56:32.171Z,65.20
2019-03-19T18:58:58.816Z,64.90
2019-03-19T19:01:25.587Z,64.96
2019-03-19T19:03:52.359Z,65.07
2019-03-19T19:06:19.077Z,65.08
2019-03-19T19:08:45.779Z,65.29
2019-03-19T19:11:12.513Z,65.48
2019-03-19T19:13:39.194Z,65.63
2019-03-19T19:16:05.835Z,65.78
2019-03-19T19:18:32.471Z,65.81
2019-03-19T19:20:59.117Z,65.92
2019-03-19T19:23:25.844Z,66.22
2019-03-19T19:25:52.498Z,66.45
2019-03-19T19:28:19.248Z,66.48
2019-03-19T19:30:45.885Z,66.54
2019-03-19T19:33:12.569Z,66.52
2019-03-19T19:35:39.316Z,66.75
2019-03-19T19:38:06.027Z,67.19
2019-03-19T19:40:32.698Z,67.43
2019-03-19T19:42:59.323Z,67.59
2019-03-19T19:45:26.317Z,67.66
2019-03-19T19:47:53.046Z,67.70
2019-03-19T19:50:19.675Z,67.64
2019-03-19T19:52:46.314Z,67.62
2019-03-19T19:55:52.419Z,67.67
2019-03-19T19:58:19.099Z,67.75
2019-03-19T20:00:45.733Z,68.00
2019-03-19T20:03:12.817Z,68.26
2019-03-19T20:05:39.595Z,68.50
2019-03-19T20:08:06.511Z,68.63
2019-03-19T20:10:33.223Z,68.64
2019-03-19T20:12:59.839Z,68.90
2019-03-19T20:15:26.465Z,68.97
2019-03-19T20:17:53.087Z,69.13
2019-03-19T20:20:19.783Z,69.19
2019-03-19T20:22:46.526Z,69.26
2019-03-19T20:25:14.408Z,69.15
2019-03-19T20:27:41.107Z,69.10
2019-03-19T20:30:09.552Z,69.33
2019-03-19T20:32:36.187Z,69.49
2019-03-19T20:35:03.310Z,69.56
2019-03-19T20:37:30.037Z,69.61
2019-03-19T20:39:56.656Z,69.63
2019-03-19T20:42:23.281Z,69.68
2019-03-19T20:44:49.900Z,69.81
2019-03-19T20:47:16.593Z,69.84
2019-03-19T20:49:47.624Z,69.83
2019-03-19T20:52:11.758Z,69.85
2019-03-19T20:54:38.477Z,69.87
2019-03-19T20:57:05.087Z,69.82
2019-03-19T20:59:31.716Z,69.80
2019-03-19T21:01:58.410Z,69.73
2019-03-19T21:04:25.057Z,70.01
2019-03-19T21:06:51.755Z,70.02
2019-03-19T21:09:18.450Z,69.89
2019-03-19T21:11:45.074Z,70.17
2019-03-19T21:14:11.814Z,70.35
2019-03-19T21:16:38.530Z,70.33
2019-03-19T21:19:05.131Z,70.36
2019-03-19T21:21:31.761Z,70.34
2019-03-19T21:23:58.484Z,70.31
2019-03-19T21:26:25.193Z,70.25
2019-03-19T21:28:51.957Z,70.16
2019-03-19T21:31:18.651Z,69.93
2019-03-19T21:33:51.250Z,70.08
2019-03-19T21:36:13.858Z,70.11
2019-03-19T21:38:40.505Z,69.91
2019-03-19T21:41:07.231Z,70.20
2019-03-19T21:43:33.949Z,70.32
2019-03-19T21:46:00.573Z,70.34
2019-03-19T21:48:27.206Z,70.33
2019-03-19T21:50:53.923Z,70.40
2019-03-19T21:53:20.662Z,70.40
2019-03-19T21:55:47.341Z,70.34
2019-03-19T21:58:13.975Z,70.37
2019-03-19T22:00:40.604Z,70.34
2019-03-19T22:03:07.205Z,70.19
2019-03-19T22:05:33.810Z,70.29
2019-03-19T22:08:00.518Z,70.48
2019-03-19T22:10:27.139Z,70.61
2019-03-19T22:12:53.832Z,70.72
2019-03-19T22:15:20.567Z,70.87
2019-03-19T22:17:47.303Z,70.94
2019-03-19T22:20:14.223Z,71.07
2019-03-19T22:22:40.834Z,70.91
2019-03-19T22:25:08.131Z,71.08
2019-03-19T22:27:34.807Z,71.40
2019-03-19T22:30:01.427Z,71.41
2019-03-19T22:32:28.125Z,71.51
2019-03-19T22:34:54.848Z,71.77
2019-03-19T22:37:21.534Z,71.79
2019-03-19T22:39:48.162Z,71.75
2019-03-19T22:42:14.783Z,71.60
2019-03-19T22:44:41.425Z,71.40
2019-03-19T22:47:08.035Z,71.71
2019-03-19T22:49:34.641Z,72.08
2019-03-19T22:52:01.252Z,72.14
2019-03-19T22:54:27.862Z,72.15
2019-03-19T22:56:54.500Z,72.17
2019-03-19T22:59:21.196Z,72.12
2019-03-19T23:01:47.829Z,72.09
2019-03-19T23:04:14.431Z,72.07
2019-03-19T23:06:41.045Z,72.03
2019-03-19T23:09:08.585Z,71.99
2019-03-19T23:11:35.232Z,71.85
2019-03-19T23:14:01.926Z,71.89
2019-03-19T23:16:28.624Z,71.88
2019-03-19T23:18:55.246Z,72.11
2019-03-19T23:21:21.988Z,72.16
2019-03-19T23:23:48.584Z,72.39
2019-03-19T23:26:15.194Z,72.26
2019-03-19T23:28:41.831Z,72.35
2019-03-19T23:31:08.446Z,72.72
2019-03-19T23:33:35.050Z,72.89
2019-03-19T23:36:01.759Z,73.11
2019-03-19T23:38:28.444Z,73.05
2019-03-19T23:40:55.068Z,73.11
2019-03-19T23:43:21.668Z,73.08
2019-03-19T23:45:48.248Z,73.03
2019-03-19T23:48:14.863Z,73.29
2019-03-19T23:50:41.464Z,73.23
2019-03-19T23:53:08.087Z,73.31
2019-03-19T23:55:34.815Z,73.28
2019-03-19T23:58:01.497Z,73.29
